createdAt,value
2023-03-19T00:02:17.136Z,98020.06
2023-03-19T00:04:46.338Z,98024.84
2023-03-19T00:07:14.145Z,98022.44
2023-03-19T00:09:40.877Z,98031.41
2023-03-19T00:12:08.644Z,98025.50
2023-03-19T00:14:35.723Z,98023.78
2023-03-19T00:17:02.332Z,98024.53
2023-03-19T00:19:29.406Z,98019.84
2023-03-19T00:21:56.468Z,98017.88
2023-03-19T00:24:23.165Z,98019.09
2023-03-19T00:26:49.765Z,98015.94
2023-03-19T00:29:16.598Z,98013.72
2023-03-19T00:31:43.337Z,98022.69
2023-03-19T00:34:10.190Z,98030.91
2023-03-19T00:36:37.554Z,98025.34
2023-03-19T00:39:05.155Z,98030.88
2023-03-19T00:41:32.528Z,98036.28
2023-03-19T00:43:59.491Z,98028.06
2023-03-19T00:46:26.666Z,98034.63
2023-03-19T00:48:55.649Z,98028.44
2023-03-19T00:51:23.667Z,98036.53
2023-03-19T00:53:51.561Z,98035.03
2023-03-19T00:56:18.857Z,98033.28
2023-03-19T00:58:45.941Z,98030.91
2023-03-19T01:01:14.826Z,98037.78
2023-03-19T01:03:41.745Z,98033.97
2023-03-19T01:06:08.331Z,98026.03
2023-03-19T01:08:35.493Z,98031.91
2023-03-19T01:11:11.293Z,98038.22
2023-03-19T01:13:38.765Z,98031.13
2023-03-19T01:16:06.048Z,98035.03
2023-03-19T01:18:33.025Z,98036.78
2023-03-19T01:20:59.597Z,98024.88
2023-03-19T01:23:26.768Z,98027.63
2023-03-19T01:25:53.459Z,98025.19
2023-03-19T01:28:20.092Z,98031.31
2023-03-19T01:33:20.115Z,98045.63
2023-03-19T01:35:50.923Z,98053.06
2023-03-19T01:38:18.133Z,98051.00
2023-03-19T01:40:47.593Z,98053.50
2023-03-19T01:43:23.059Z,98055.09
2023-03-19T01:45:53.114Z,98056.63
2023-03-19T01:48:33.490Z,98060.50
2023-03-19T01:51:01.470Z,98062.44
2023-03-19T01:53:31.612Z,98064.03
2023-03-19T01:56:05.039Z,98067.13
2023-03-19T01:58:32.492Z,98072.06
2023-03-19T02:00:59.083Z,98084.19
2023-03-19T02:03:27.339Z,98077.13
2023-03-19T02:05:56.640Z,98082.22
2023-03-19T02:08:24.471Z,98085.38
2023-03-19T02:10:52.628Z,98105.34
2023-03-19T02:13:19.446Z,98097.84
2023-03-19T02:15:46.517Z,98096.59
2023-03-19T02:18:13.544Z,98096.19
2023-03-19T02:20:49.500Z,98096.50
2023-03-19T02:23:26.917Z,98103.94
2023-03-19T02:26:02.362Z,98110.53
2023-03-19T02:28:30.809Z,98110.59
2023-03-19T02:30:57.458Z,98101.25
2023-03-19T02:33:24.094Z,98103.19
2023-03-19T02:35:52.550Z,98102.84
2023-03-19T02:38:22.545Z,98098.59
2023-03-19T02:40:58.244Z,98111.00
2023-03-19T02:43:24.866Z,98109.44
2023-03-19T02:45:51.960Z,98108.28
2023-03-19T02:48:18.661Z,98108.09
2023-03-19T02:50:45.891Z,98109.69
2023-03-19T02:53:12.803Z,98100.91
2023-03-19T02:55:39.501Z,98115.22
2023-03-19T02:58:06.135Z,98109.03
2023-03-19T03:00:33.161Z,98106.97
2023-03-19T03:03:01.069Z,98099.03
2023-03-19T03:05:28.096Z,98101.16
2023-03-19T03:07:54.689Z,98109.25
2023-03-19T03:10:21.299Z,98103.13
2023-03-19T03:12:47.932Z,98105.47
2023-03-19T03:15:14.866Z,98107.94
2023-03-19T03:17:45.106Z,98115.88
2023-03-19T03:20:14.029Z,98114.66
2023-03-19T03:22:41.574Z,98118.47
2023-03-19T03:25:09.970Z,98125.53
2023-03-19T03:27:37.948Z,98120.81
2023-03-19T03:30:06.733Z,98112.81
2023-03-19T03:32:33.317Z,98113.16
2023-03-19T03:34:59.925Z,98108.66
2023-03-19T03:37:26.700Z,98107.28
2023-03-19T03:39:53.514Z,98105.88
2023-03-19T03:42:20.191Z,98097.22
2023-03-19T03:44:47.200Z,98099.31
2023-03-19T03:47:14.077Z,98105.34
2023-03-19T03:49:40.680Z,98110.53
2023-03-19T03:52:08.578Z,98117.09
2023-03-19T03:54:35.583Z,98111.38
2023-03-19T03:57:03.676Z,98124.66
2023-03-19T03:59:30.474Z,98121.34
2023-03-19T04:01:57.039Z,98113.47
2023-03-19T04:04:23.660Z,98113.56
2023-03-19T04:09:23.569Z,98119.25
2023-03-19T04:11:51.538Z,98120.91
2023-03-19T04:14:18.302Z,98123.72
2023-03-19T04:19:16.245Z,98124.38
2023-03-19T04:21:42.863Z,98129.50
2023-03-19T04:24:10.668Z,98131.78
2023-03-19T04:26:38.054Z,98140.28
2023-03-19T04:29:06.187Z,98138.78
2023-03-19T04:31:32.811Z,98143.44
2023-03-19T04:33:59.395Z,98141.75
2023-03-19T04:36:26.382Z,98145.91
2023-03-19T04:38:53.713Z,98147.22
2023-03-19T04:41:20.622Z,98151.78
2023-03-19T04:43:47.202Z,98152.09
2023-03-19T04:46:13.799Z,98152.88
2023-03-19T04:48:40.546Z,98145.59
2023-03-19T04:51:09.482Z,98147.25
2023-03-19T04:53:38.076Z,98147.63
2023-03-19T04:56:05.212Z,98144.91
2023-03-19T04:58:31.806Z,98154.34
2023-03-19T05:00:58.800Z,98158.63
2023-03-19T05:05:58.430Z,98157.25
2023-03-19T05:08:25.096Z,98158.88
2023-03-19T05:10:51.942Z,98167.53
2023-03-19T05:13:20.988Z,98161.00
2023-03-19T05:15:48.626Z,98167.28
2023-03-19T05:18:15.557Z,98175.84
2023-03-19T05:20:42.885Z,98177.38
2023-03-19T05:23:09.592Z,98180.50
2023-03-19T05:25:36.229Z,98181.31
2023-03-19T05:28:03.948Z,98177.41
2023-03-19T05:30:31.890Z,98179.66
2023-03-19T05:33:00.011Z,98176.44
2023-03-19T05:35:27.969Z,98185.13
2023-03-19T05:37:54.619Z,98179.44
2023-03-19T05:40:22.416Z,98185.03
2023-03-19T05:42:49.243Z,98183.34
2023-03-19T05:45:17.414Z,98175.38
2023-03-19T05:50:19.100Z,98180.84
2023-03-19T05:52:45.988Z,98181.38
2023-03-19T05:55:12.654Z,98184.91
2023-03-19T05:57:39.519Z,98193.47
2023-03-19T06:00:07.760Z,98196.09
2023-03-19T06:02:35.779Z,98194.84
2023-03-19T06:05:02.700Z,98196.00
2023-03-19T06:07:29.351Z,98194.06
2023-03-19T06:09:56.066Z,98196.84
2023-03-19T06:12:23.861Z,98194.59
2023-03-19T06:14:50.639Z,98200.41
2023-03-19T06:17:17.388Z,98205.03
2023-03-19T06:19:44.148Z,98205.88
2023-03-19T06:22:10.923Z,98212.72
2023-03-19T06:24:37.614Z,98218.91
2023-03-19T06:27:04.447Z,98206.22
2023-03-19T06:29:30.983Z,98216.84
2023-03-19T06:31:58.228Z,98213.38
2023-03-19T06:34:25.608Z,98216.56
2023-03-19T06:36:53.954Z,98220.97
2023-03-19T06:39:21.251Z,98226.50
2023-03-19T06:41:47.882Z,98221.81
2023-03-19T06:44:14.833Z,98216.81
2023-03-19T06:46:42.014Z,98220.09
2023-03-19T06:49:08.956Z,98220.00
2023-03-19T06:51:35.909Z,98221.22
2023-03-19T06:54:02.679Z,98214.94
2023-03-19T06:56:29.771Z,98218.88
2023-03-19T06:58:56.871Z,98216.28
2023-03-19T07:01:24.120Z,98222.94
2023-03-19T07:06:23.251Z,98227.22
2023-03-19T07:08:49.912Z,98214.00
2023-03-19T07:13:48.445Z,98219.47
2023-03-19T07:16:15.010Z,98233.56
2023-03-19T07:18:41.592Z,98234.81
2023-03-19T07:21:08.208Z,98236.47
2023-03-19T07:23:34.847Z,98240.91
2023-03-19T07:26:01.645Z,98233.16
2023-03-19T07:28:28.265Z,98232.38
2023-03-19T07:30:55.225Z,98228.22
2023-03-19T07:33:22.170Z,98231.00
2023-03-19T07:35:49.120Z,98239.97
2023-03-19T07:38:15.978Z,98241.13
2023-03-19T07:40:51.375Z,98232.97
2023-03-19T07:43:21.950Z,98240.47
2023-03-19T07:45:48.646Z,98237.31
2023-03-19T07:48:15.267Z,98232.59
2023-03-19T07:50:41.881Z,98245.84
2023-03-19T07:53:08.528Z,98243.31
2023-03-19T07:55:37.199Z,98244.75
2023-03-19T07:58:04.437Z,98243.69
2023-03-19T08:00:31.218Z,98250.22
2023-03-19T08:02:57.840Z,98243.56
2023-03-19T08:05:24.547Z,98242.03
2023-03-19T08:07:51.803Z,98247.56
2023-03-19T08:10:18.675Z,98238.88
2023-03-19T08:12:45.465Z,98242.78
2023-03-19T08:15:12.702Z,98249.53
2023-03-19T08:17:39.393Z,98245.13
2023-03-19T08:20:12.011Z,98244.38
2023-03-19T08:22:39.634Z,98258.84
2023-03-19T08:25:07.326Z,98249.94
2023-03-19T08:27:35.917Z,98246.16
2023-03-19T08:30:07.806Z,98257.47
2023-03-19T08:32:35.738Z,98255.50
2023-03-19T08:35:03.490Z,98258.66
2023-03-19T08:37:30.112Z,98261.81
2023-03-19T08:39:56.744Z,98254.53
2023-03-19T08:42:24.022Z,98254.09
2023-03-19T08:44:50.753Z,98250.31
2023-03-19T08:47:17.686Z,98247.63
2023-03-19T08:49:44.334Z,98251.25
2023-03-19T08:52:11.253Z,98246.59
2023-03-19T08:54:37.894Z,98245.41
2023-03-19T08:57:04.492Z,98249.81
2023-03-19T08:59:34.073Z,98248.63
2023-03-19T09:02:01.216Z,98253.72
2023-03-19T09:04:28.435Z,98254.00
2023-03-19T09:06:55.965Z,98257.22
2023-03-19T09:09:24.650Z,98263.50
2023-03-19T09:11:51.522Z,98262.84
2023-03-19T09:14:20.048Z,98271.06
2023-03-19T09:16:47.129Z,98271.81
2023-03-19T09:19:14.072Z,98264.78
2023-03-19T09:24:12.235Z,98267.38
2023-03-19T09:26:38.871Z,98271.75
2023-03-19T09:29:05.448Z,98263.88
2023-03-19T09:31:32.180Z,98268.19
2023-03-19T09:33:58.864Z,98260.59
2023-03-19T09:36:26.511Z,98265.16
2023-03-19T09:38:53.120Z,98268.16
2023-03-19T09:41:31.860Z,98265.56
2023-03-19T09:43:58.951Z,98259.97
2023-03-19T09:46:46.803Z,98260.66
2023-03-19T09:49:28.428Z,98256.09
2023-03-19T09:52:09.496Z,98252.75
2023-03-19T09:54:49.963Z,98246.16
2023-03-19T09:57:17.623Z,98246.78
2023-03-19T09:59:44.460Z,98246.59
2023-03-19T10:02:16.934Z,98241.72
2023-03-19T10:05:05.488Z,98245.28
2023-03-19T10:07:38.360Z,98252.75
2023-03-19T10:10:42.625Z,98246.78
2023-03-19T10:13:22.530Z,98241.19
2023-03-19T10:15:52.873Z,98240.63
2023-03-19T10:18:34.780Z,98235.69
2023-03-19T10:21:03.956Z,98234.06
2023-03-19T10:23:39.895Z,98235.59
2023-03-19T10:26:11.712Z,98235.06
2023-03-19T10:28:40.187Z,98240.09
2023-03-19T10:31:12.890Z,98233.25
2023-03-19T10:33:45.286Z,98224.59
2023-03-19T10:38:45.053Z,98225.03
2023-03-19T10:41:36.277Z,98225.16
2023-03-19T10:44:10.258Z,98223.94
2023-03-19T10:46:38.676Z,98218.19
2023-03-19T10:49:05.314Z,98221.59
2023-03-19T10:51:32.529Z,98219.69
2023-03-19T10:54:01.367Z,98218.84
2023-03-19T10:56:34.121Z,98203.47
2023-03-19T10:59:07.101Z,98206.25
2023-03-19T11:01:43.941Z,98204.91
2023-03-19T11:04:26.186Z,98201.16
2023-03-19T11:06:55.278Z,98205.56
2023-03-19T11:09:27.383Z,98203.41
2023-03-19T11:11:59.004Z,98202.78
2023-03-19T11:14:37.297Z,98193.78
2023-03-19T11:17:06.713Z,98202.94
2023-03-19T11:22:12.591Z,98199.91
2023-03-19T11:24:40.890Z,98192.81
2023-03-19T11:27:10.255Z,98197.03
2023-03-19T11:29:41.916Z,98195.25
2023-03-19T11:32:22.274Z,98182.75
2023-03-19T11:35:01.638Z,98185.78
2023-03-19T11:37:43.875Z,98175.56
2023-03-19T11:40:32.085Z,98176.09
2023-03-19T11:43:01.542Z,98176.75
2023-03-19T11:46:00.549Z,98170.59
2023-03-19T11:48:40.872Z,98177.41
2023-03-19T11:51:17.920Z,98170.22
2023-03-19T11:54:02.231Z,98162.44
2023-03-19T11:56:48.282Z,98157.66
2023-03-19T11:59:43.535Z,98153.97
2023-03-19T12:02:47.395Z,98158.50
2023-03-19T12:08:37.730Z,98155.06
2023-03-19T12:11:16.789Z,98146.53
2023-03-19T12:14:08.322Z,98152.13
2023-03-19T12:16:58.420Z,98144.63
2023-03-19T12:19:36.921Z,98148.31
2023-03-19T12:22:19.533Z,98144.81
2023-03-19T12:25:04.609Z,98135.66
2023-03-19T12:27:56.934Z,98133.06
2023-03-19T12:30:44.165Z,98135.19
2023-03-19T12:33:48.254Z,98136.75
2023-03-19T12:39:14.728Z,98134.22
2023-03-19T12:41:44.200Z,98136.84
2023-03-19T12:44:22.747Z,98133.19
2023-03-19T12:46:58.605Z,98133.78
2023-03-19T12:49:52.323Z,98139.59
2023-03-19T12:52:47.873Z,98120.25
2023-03-19T12:55:21.130Z,98133.63
2023-03-19T12:57:58.842Z,98131.78
2023-03-19T13:00:39.160Z,98130.31
2023-03-19T13:03:18.690Z,98128.06
2023-03-19T13:05:52.810Z,98119.31
2023-03-19T13:11:13.715Z,98122.72
2023-03-19T13:13:50.154Z,98139.16
2023-03-19T13:16:32.583Z,98138.56
2023-03-19T13:19:21.683Z,98142.81
2023-03-19T13:21:52.055Z,98144.19
2023-03-19T13:24:34.375Z,98130.47
2023-03-19T13:27:01.958Z,98144.00
2023-03-19T13:29:31.504Z,98146.72
2023-03-19T13:32:02.561Z,98149.75
2023-03-19T13:34:34.127Z,98170.38
2023-03-19T13:37:21.366Z,98170.75
2023-03-19T13:39:49.544Z,98190.44
2023-03-19T13:42:42.772Z,98200.84
2023-03-19T13:45:21.700Z,98201.41
2023-03-19T13:47:50.043Z,98198.00
2023-03-19T13:50:19.518Z,98179.34
2023-03-19T13:52:51.716Z,98169.97
2023-03-19T13:55:34.481Z,98162.19
2023-03-19T13:58:16.492Z,98143.78
2023-03-19T14:00:43.164Z,98144.97
2023-03-19T14:03:32.827Z,98152.47
2023-03-19T14:08:43.806Z,98156.41
2023-03-19T14:11:11.129Z,98156.00
2023-03-19T14:13:43.849Z,98153.66
2023-03-19T14:16:22.925Z,98159.16
2023-03-19T14:18:50.514Z,98151.69
2023-03-19T14:21:32.985Z,98151.31
2023-03-19T14:27:30.724Z,98146.59
2023-03-19T14:30:00.791Z,98157.63
2023-03-19T14:32:35.230Z,98161.53
2023-03-19T14:35:06.614Z,98160.75
2023-03-19T14:37:39.661Z,98165.03
2023-03-19T14:40:16.989Z,98151.72
2023-03-19T14:43:12.629Z,98137.94
2023-03-19T14:45:49.665Z,98129.69
2023-03-19T14:48:53.876Z,98131.63
2023-03-19T14:51:30.980Z,98136.78
2023-03-19T14:54:05.263Z,98141.03
2023-03-19T14:56:35.184Z,98142.59
2023-03-19T14:59:04.389Z,98150.50
2023-03-19T15:01:33.321Z,98148.13
2023-03-19T15:04:08.172Z,98159.50
2023-03-19T15:06:38.749Z,98155.22
2023-03-19T15:09:37.894Z,98160.34
2023-03-19T15:12:26.211Z,98156.78
2023-03-19T15:15:24.611Z,98163.47
2023-03-19T15:18:03.921Z,98172.09
2023-03-19T15:20:37.055Z,98175.25
2023-03-19T15:23:16.607Z,98177.19
2023-03-19T15:26:01.990Z,98179.16
2023-03-19T15:28:31.597Z,98189.78
2023-03-19T15:31:12.817Z,98180.34
2023-03-19T15:33:47.911Z,98185.44
2023-03-19T15:36:17.553Z,98174.06
2023-03-19T15:39:04.929Z,98175.28
2023-03-19T15:41:33.311Z,98180.78
2023-03-19T15:44:01.692Z,98180.00
2023-03-19T15:46:34.106Z,98178.81
2023-03-19T15:49:13.736Z,98186.22
2023-03-19T15:51:42.344Z,98183.91
2023-03-19T15:54:09.300Z,98184.25
2023-03-19T15:56:36.070Z,98188.22
2023-03-19T16:01:36.239Z,98183.91
2023-03-19T16:04:11.683Z,98187.03
2023-03-19T16:06:40.097Z,98191.34
2023-03-19T16:09:17.158Z,98198.81
2023-03-19T16:11:46.015Z,98207.41
2023-03-19T16:14:15.186Z,98215.63
2023-03-19T16:16:42.421Z,98217.59
2023-03-19T16:22:14.055Z,98223.81
2023-03-19T16:24:43.913Z,98238.34
2023-03-19T16:27:16.995Z,98241.44
2023-03-19T16:29:46.609Z,98254.78
2023-03-19T16:34:57.974Z,98261.41
2023-03-19T16:37:44.934Z,98268.47
2023-03-19T16:40:14.150Z,98282.94
2023-03-19T16:42:41.799Z,98291.09
2023-03-19T16:45:17.539Z,98295.34
2023-03-19T16:47:52.129Z,98297.28
2023-03-19T16:50:21.327Z,98299.28
2023-03-19T16:52:49.492Z,98295.69
2023-03-19T16:55:23.007Z,98298.78
2023-03-19T16:57:56.846Z,98308.91
2023-03-19T17:00:24.916Z,98309.69
2023-03-19T17:02:56.216Z,98310.81
2023-03-19T17:05:23.044Z,98309.25
2023-03-19T17:07:50.649Z,98318.59
2023-03-19T17:12:56.281Z,98315.72
2023-03-19T17:15:33.966Z,98316.75
2023-03-19T17:18:03.020Z,98317.19
2023-03-19T17:20:36.234Z,98313.50
2023-03-19T17:23:11.249Z,98321.84
2023-03-19T17:25:38.166Z,98318.78
2023-03-19T17:28:04.961Z,98322.06
2023-03-19T17:30:32.039Z,98319.72
2023-03-19T17:32:58.857Z,98321.84
2023-03-19T17:35:26.167Z,98322.66
2023-03-19T17:37:52.885Z,98325.41
2023-03-19T17:40:27.476Z,98323.44
2023-03-19T17:42:55.842Z,98320.28
2023-03-19T17:45:28.903Z,98325.00
2023-03-19T17:47:58.254Z,98335.28
2023-03-19T17:50:28.840Z,98325.88
2023-03-19T17:52:55.611Z,98346.22
2023-03-19T17:55:28.304Z,98359.44
2023-03-19T18:00:30.163Z,98347.09
2023-03-19T18:02:57.136Z,98356.47
2023-03-19T18:05:25.551Z,98358.84
2023-03-19T18:07:55.485Z,98371.81
2023-03-19T18:10:27.713Z,98374.06
2023-03-19T18:12:54.899Z,98370.16
2023-03-19T18:15:22.548Z,98367.09
2023-03-19T18:17:52.510Z,98377.69
2023-03-19T18:20:21.661Z,98374.75
2023-03-19T18:22:48.432Z,98368.28
2023-03-19T18:25:28.286Z,98355.69
2023-03-19T18:27:55.151Z,98364.91
2023-03-19T18:30:23.358Z,98366.84
2023-03-19T18:32:54.943Z,98367.59
2023-03-19T18:35:27.707Z,98374.59
2023-03-19T18:37:54.824Z,98366.09
2023-03-19T18:40:23.889Z,98378.28
2023-03-19T18:42:50.876Z,98376.88
2023-03-19T18:45:18.584Z,98368.88
2023-03-19T18:50:23.951Z,98364.44
2023-03-19T18:52:52.423Z,98370.22
2023-03-19T18:55:20.867Z,98370.63
2023-03-19T18:57:54.129Z,98377.63
2023-03-19T19:00:31.076Z,98383.06
2023-03-19T19:02:58.817Z,98390.13
2023-03-19T19:05:28.756Z,98389.16
2023-03-19T19:08:01.154Z,98389.91
2023-03-19T19:10:43.480Z,98381.75
2023-03-19T19:13:20.562Z,98387.91
2023-03-19T19:15:48.131Z,98389.84
2023-03-19T19:18:20.312Z,98394.66
2023-03-19T19:23:22.316Z,98393.91
2023-03-19T19:25:55.329Z,98402.38
2023-03-19T19:28:30.761Z,98404.59
2023-03-19T19:30:59.962Z,98413.16
2023-03-19T19:33:29.310Z,98416.19
2023-03-19T19:35:56.102Z,98422.88
2023-03-19T19:38:22.920Z,98431.06
2023-03-19T19:40:51.783Z,98422.41
2023-03-19T19:43:24.442Z,98427.03
2023-03-19T19:45:53.574Z,98426.25
2023-03-19T19:48:21.529Z,98424.81
2023-03-19T19:50:48.920Z,98421.34
2023-03-19T19:53:15.918Z,98421.59
2023-03-19T19:55:43.128Z,98416.03
2023-03-19T19:58:19.825Z,98416.13
2023-03-19T20:01:00.227Z,98415.72
2023-03-19T20:03:31.711Z,98423.94
2023-03-19T20:05:59.670Z,98434.50
2023-03-19T20:08:27.241Z,98434.44
2023-03-19T20:10:55.085Z,98444.63
2023-03-19T20:15:58.950Z,98429.75
2023-03-19T20:18:30.798Z,98453.94
2023-03-19T20:20:58.263Z,98440.22
2023-03-19T20:23:25.262Z,98450.38
2023-03-19T20:25:52.331Z,98447.69
2023-03-19T20:28:25.455Z,98459.03
2023-03-19T20:30:54.140Z,98448.31
2023-03-19T20:33:21.342Z,98455.25
2023-03-19T20:35:48.265Z,98467.06
2023-03-19T20:38:15.647Z,98455.09
2023-03-19T20:40:52.596Z,98455.53
2023-03-19T20:43:34.330Z,98456.22
2023-03-19T20:46:04.656Z,98459.34
2023-03-19T20:48:33.328Z,98456.88
2023-03-19T20:51:02.136Z,98455.75
2023-03-19T20:53:29.069Z,98458.59
2023-03-19T20:55:56.618Z,98460.84
2023-03-19T20:58:29.965Z,98467.13
2023-03-19T21:00:58.025Z,98469.34
2023-03-19T21:03:27.327Z,98465.44
2023-03-19T21:06:00.013Z,98475.31
2023-03-19T21:08:58.788Z,98482.69
2023-03-19T21:11:38.484Z,98478.78
2023-03-19T21:14:06.062Z,98478.78
2023-03-19T21:16:34.119Z,98479.47
2023-03-19T21:19:00.970Z,98483.63
2023-03-19T21:21:34.529Z,98483.53
2023-03-19T21:24:11.296Z,98483.41
2023-03-19T21:26:40.531Z,98486.94
2023-03-19T21:29:14.874Z,98487.34
2023-03-19T21:31:42.838Z,98487.00
2023-03-19T21:34:14.406Z,98490.94
2023-03-19T21:36:41.288Z,98495.81
2023-03-19T21:39:07.959Z,98493.81
2023-03-19T21:41:36.226Z,98494.97
2023-03-19T21:44:08.032Z,98493.81
2023-03-19T21:46:35.326Z,98494.72
2023-03-19T21:49:01.970Z,98493.13
2023-03-19T21:54:06.524Z,98504.91
2023-03-19T21:59:15.282Z,98505.91
2023-03-19T22:01:42.546Z,98499.97
2023-03-19T22:04:09.218Z,98497.44
2023-03-19T22:06:36.738Z,98490.56
2023-03-19T22:09:04.374Z,98503.81
2023-03-19T22:11:34.759Z,98504.38
2023-03-19T22:16:46.109Z,98502.88
2023-03-19T22:19:17.609Z,98508.94
2023-03-19T22:21:44.279Z,98502.75
2023-03-19T22:24:10.886Z,98513.53
2023-03-19T22:26:43.227Z,98509.13
2023-03-19T22:29:19.540Z,98513.06
2023-03-19T22:31:49.141Z,98510.19
2023-03-19T22:34:17.433Z,98517.41
2023-03-19T22:36:44.713Z,98516.53
2023-03-19T22:39:11.685Z,98512.97
2023-03-19T22:41:41.066Z,98516.44
2023-03-19T22:44:12.133Z,98523.00
2023-03-19T22:46:38.897Z,98524.41
2023-03-19T22:49:12.472Z,98533.63
2023-03-19T22:51:39.034Z,98529.75
2023-03-19T22:54:05.994Z,98530.28
2023-03-19T22:56:32.614Z,98537.41
2023-03-19T22:58:59.145Z,98547.41
2023-03-19T23:01:38.497Z,98545.47
2023-03-19T23:04:32.888Z,98545.84
2023-03-19T23:07:00.932Z,98540.97
2023-03-19T23:12:03.304Z,98548.06
2023-03-19T23:14:31.336Z,98551.81
2023-03-19T23:17:03.773Z,98556.03
2023-03-19T23:19:31.611Z,98541.31
2023-03-19T23:21:59.760Z,98555.84
2023-03-19T23:24:26.765Z,98559.91
2023-03-19T23:26:56.208Z,98552.00
2023-03-19T23:29:29.947Z,98555.16
2023-03-19T23:31:58.744Z,98556.09
2023-03-19T23:34:26.882Z,98551.66
2023-03-19T23:36:53.636Z,98551.59
2023-03-19T23:41:57.153Z,98559.34
2023-03-19T23:44:23.781Z,98557.13
2023-03-19T23:46:51.920Z,98553.31
2023-03-19T23:49:28.931Z,98551.75
2023-03-19T23:51:56.327Z,98554.53
2023-03-19T23:57:11.350Z,98544.72
2023-03-19T23:59:41.927Z,98536.72
